createdAt,value
2022-09-12T00:02:04.340Z,17.30
2022-09-12T00:04:30.805Z,17.08
2022-09-12T00:06:57.162Z,17.05
2022-09-12T00:09:23.504Z,16.23
2022-09-12T00:11:50.019Z,16.25
2022-09-12T00:14:17.441Z,17.33
2022-09-12T00:16:44.117Z,18.02
2022-09-12T00:19:10.779Z,18.52
2022-09-12T00:21:38.664Z,17.60
2022-09-12T00:24:05.718Z,18.60
2022-09-12T00:26:32.343Z,16.60
2022-09-12T00:28:58.825Z,20.42
2022-09-12T00:31:26.388Z,21.85
2022-09-12T00:33:54.858Z,18.27
2022-09-12T00:36:23.264Z,17.48
2022-09-12T00:38:50.266Z,20.38
2022-09-12T00:41:21.509Z,20.17
2022-09-12T00:43:49.424Z,22.40
2022-09-12T00:46:27.793Z,21.52
2022-09-12T00:48:56.929Z,22.70
2022-09-12T00:51:23.331Z,22.60
2022-09-12T00:53:52.205Z,22.10
2022-09-12T00:56:18.789Z,25.27
2022-09-12T00:58:49.317Z,26.70
2022-09-12T01:01:15.860Z,29.17
2022-09-12T01:03:42.341Z,24.42
2022-09-12T01:06:11.831Z,27.58
2022-09-12T01:08:38.758Z,26.38
2022-09-12T01:11:05.516Z,31.55
2022-09-12T01:13:33.732Z,25.50
2022-09-12T01:16:00.312Z,26.88
2022-09-12T01:18:29.700Z,24.80
2022-09-12T01:20:57.842Z,25.33
2022-09-12T01:23:24.193Z,26.38
2022-09-12T01:26:00.212Z,30.27
2022-09-12T01:28:29.751Z,31.52
2022-09-12T01:30:56.140Z,29.88
2022-09-12T01:33:34.114Z,34.63
2022-09-12T01:36:08.656Z,36.67
2022-09-12T01:38:39.632Z,35.38
2022-09-12T01:41:24.813Z,40.75
2022-09-12T01:44:10.152Z,41.10
2022-09-12T01:46:42.945Z,47.35
2022-09-12T01:49:15.131Z,42.30
2022-09-12T01:51:44.685Z,43.47
2022-09-12T01:54:20.406Z,42.60
2022-09-12T01:56:48.936Z,46.22
2022-09-12T01:59:18.800Z,51.17
2022-09-12T02:01:55.847Z,46.42
2022-09-12T02:04:24.958Z,43.03
2022-09-12T02:07:03.597Z,42.92
2022-09-12T02:09:34.554Z,46.95
2022-09-12T02:12:01.317Z,49.42
2022-09-12T02:14:37.193Z,49.10
2022-09-12T02:17:13.996Z,47.15
2022-09-12T02:19:42.900Z,46.67
2022-09-12T02:22:11.741Z,42.67
2022-09-12T02:24:40.220Z,48.80
2022-09-12T02:27:18.073Z,49.33
2022-09-12T02:29:47.178Z,50.58
2022-09-12T02:32:23.320Z,47.60
2022-09-12T02:35:01.906Z,49.15
2022-09-12T02:37:34.400Z,48.45
2022-09-12T02:40:01.213Z,53.20
2022-09-12T02:42:27.625Z,57.10
2022-09-12T02:44:55.432Z,56.30
2022-09-12T02:47:39.640Z,61.30
2022-09-12T02:50:08.021Z,71.07
2022-09-12T02:52:35.750Z,74.82
2022-09-12T02:55:04.763Z,61.53
2022-09-12T02:57:31.357Z,59.88
2022-09-12T02:59:59.385Z,56.72
2022-09-12T03:02:42.370Z,58.65
2022-09-12T03:05:08.805Z,69.03
2022-09-12T03:07:50.496Z,77.78
2022-09-12T03:10:29.389Z,68.43
2022-09-12T03:13:00.971Z,74.28
2022-09-12T03:15:31.126Z,68.45
2022-09-12T03:18:17.228Z,72.38
2022-09-12T03:20:47.644Z,74.00
2022-09-12T03:23:31.184Z,75.03
2022-09-12T03:26:12.588Z,73.35
2022-09-12T03:28:39.391Z,65.13
2022-09-12T03:31:16.149Z,73.88
2022-09-12T03:33:42.790Z,72.47
2022-09-12T03:36:14.540Z,74.80
2022-09-12T03:38:40.876Z,76.80
2022-09-12T03:41:07.301Z,79.95
2022-09-12T03:43:33.636Z,78.15
2022-09-12T03:46:01.130Z,81.75
2022-09-12T03:48:27.625Z,83.10
2022-09-12T03:50:53.965Z,79.43
2022-09-12T03:53:20.349Z,83.43
2022-09-12T03:55:46.742Z,84.45
2022-09-12T03:58:13.160Z,85.35
2022-09-12T04:00:40.025Z,92.20
2022-09-12T04:03:06.334Z,85.50
2022-09-12T04:05:32.684Z,84.85
2022-09-12T04:07:59.000Z,80.47
2022-09-12T04:10:25.337Z,79.70
2022-09-12T04:12:51.840Z,84.88
2022-09-12T04:15:18.393Z,79.05
2022-09-12T04:17:44.820Z,76.47
2022-09-12T04:20:11.233Z,81.70
2022-09-12T04:22:37.601Z,78.18
2022-09-12T04:25:04.145Z,77.15
2022-09-12T04:27:30.893Z,75.03
2022-09-12T04:29:57.878Z,82.18
2022-09-12T04:32:24.297Z,73.10
2022-09-12T04:34:52.425Z,71.43
2022-09-12T04:37:18.864Z,76.97
2022-09-12T04:39:45.252Z,67.32
2022-09-12T04:42:11.650Z,66.75
2022-09-12T04:44:38.133Z,65.75
2022-09-12T04:47:04.523Z,64.28
2022-09-12T04:49:31.029Z,74.00
2022-09-12T04:51:57.593Z,73.50
2022-09-12T04:54:24.021Z,76.25
2022-09-12T04:56:50.833Z,61.10
2022-09-12T04:59:18.168Z,75.88
2022-09-12T05:01:44.625Z,70.07
2022-09-12T05:04:12.879Z,70.10
2022-09-12T05:06:41.390Z,77.55
2022-09-12T05:09:11.196Z,64.60
2022-09-12T05:12:03.342Z,78.38
2022-09-12T05:14:25.465Z,67.55
2022-09-12T05:16:51.872Z,74.78
2022-09-12T05:19:18.367Z,82.35
2022-09-12T05:21:44.769Z,72.22
2022-09-12T05:24:11.467Z,73.13
2022-09-12T05:26:38.199Z,69.82
2022-09-12T05:29:06.003Z,72.13
2022-09-12T05:31:32.322Z,66.45
2022-09-12T05:33:58.774Z,73.65
2022-09-12T05:36:26.726Z,77.15
2022-09-12T05:38:53.844Z,68.20
2022-09-12T05:41:24.816Z,74.50
2022-09-12T05:43:55.921Z,73.07
2022-09-12T05:46:23.967Z,76.70
2022-09-12T05:48:55.663Z,62.72
2022-09-12T05:51:26.846Z,66.63
2022-09-12T05:53:55.328Z,67.15
2022-09-12T05:56:26.316Z,69.38
2022-09-12T05:59:02.938Z,66.50
2022-09-12T06:01:30.287Z,71.63
2022-09-12T06:03:57.878Z,67.80
2022-09-12T06:06:24.827Z,66.63
2022-09-12T06:08:56.065Z,66.50
2022-09-12T06:11:25.870Z,59.70
2022-09-12T06:13:52.800Z,61.17
2022-09-12T06:16:20.890Z,66.28
2022-09-12T06:18:48.798Z,64.35
2022-09-12T06:21:15.809Z,67.90
2022-09-12T06:23:42.474Z,60.20
2022-09-12T06:26:09.750Z,60.22
2022-09-12T06:28:37.774Z,62.65
2022-09-12T06:31:05.464Z,56.10
2022-09-12T06:33:33.740Z,59.40
2022-09-12T06:36:23.498Z,59.50
2022-09-12T06:38:57.189Z,52.53
2022-09-12T06:41:24.161Z,57.60
2022-09-12T06:43:50.855Z,60.05
2022-09-12T06:46:17.195Z,57.75
2022-09-12T06:48:43.661Z,57.58
2022-09-12T06:51:11.372Z,63.83
2022-09-12T06:53:37.738Z,53.70
2022-09-12T06:56:04.112Z,53.60
2022-09-12T06:58:30.642Z,53.50
2022-09-12T07:01:06.085Z,53.65
2022-09-12T07:03:33.082Z,64.68
2022-09-12T07:06:03.737Z,57.00
2022-09-12T07:08:31.553Z,59.35
2022-09-12T07:10:59.177Z,60.20
2022-09-12T07:13:25.530Z,60.05
2022-09-12T07:15:51.866Z,60.85
2022-09-12T07:18:18.193Z,63.60
2022-09-12T07:20:44.673Z,62.20
2022-09-12T07:23:11.279Z,61.80
2022-09-12T07:25:37.632Z,55.75
2022-09-12T07:28:04.073Z,52.50
2022-09-12T07:30:30.662Z,45.05
2022-09-12T07:32:57.336Z,38.83
2022-09-12T07:35:23.781Z,40.22
2022-09-12T07:37:50.169Z,40.47
2022-09-12T07:40:16.780Z,37.03
2022-09-12T07:42:43.300Z,38.67
2022-09-12T07:45:10.189Z,39.72
2022-09-12T07:47:36.589Z,40.13
2022-09-12T07:50:03.110Z,35.95
2022-09-12T07:52:29.497Z,33.67
2022-09-12T07:54:55.833Z,35.92
2022-09-12T07:57:22.126Z,33.58
2022-09-12T07:59:52.901Z,43.22
2022-09-12T08:02:20.055Z,39.00
2022-09-12T08:04:49.282Z,30.98
2022-09-12T08:07:15.777Z,30.50
2022-09-12T08:09:42.157Z,32.97
2022-09-12T08:12:08.491Z,32.88
2022-09-12T08:14:34.825Z,28.17
2022-09-12T08:17:01.165Z,32.60
2022-09-12T08:19:28.585Z,31.83
2022-09-12T08:21:54.980Z,30.75
2022-09-12T08:24:21.341Z,28.20
2022-09-12T08:26:47.787Z,32.17
2022-09-12T08:29:14.415Z,27.38
2022-09-12T08:31:42.418Z,32.40
2022-09-12T08:34:08.940Z,28.98
2022-09-12T08:36:35.582Z,27.55
2022-09-12T08:39:04.737Z,29.40
2022-09-12T08:41:34.696Z,24.25
2022-09-12T08:44:11.436Z,23.08
2022-09-12T08:46:52.789Z,24.52
2022-09-12T08:49:25.149Z,21.98
2022-09-12T08:51:51.985Z,22.73
2022-09-12T08:54:24.370Z,24.13
2022-09-12T08:56:51.049Z,24.77
2022-09-12T08:59:17.478Z,22.52
2022-09-12T09:01:45.340Z,24.33
2022-09-12T09:04:26.893Z,23.92
2022-09-12T09:06:55.040Z,24.95
2022-09-12T09:09:45.817Z,23.88
2022-09-12T09:12:15.297Z,22.48
2022-09-12T09:14:57.989Z,22.45
2022-09-12T09:17:44.582Z,22.48
2022-09-12T09:20:23.142Z,20.98
2022-09-12T09:22:49.515Z,18.52
2022-09-12T09:25:22.991Z,19.60
2022-09-12T09:27:53.870Z,19.65
2022-09-12T09:30:24.059Z,17.77
2022-09-12T09:32:52.772Z,19.73
2022-09-12T09:35:21.921Z,18.33
2022-09-12T09:37:58.830Z,18.48
2022-09-12T09:40:39.908Z,21.15
2022-09-12T09:43:12.218Z,19.08
2022-09-12T09:45:41.585Z,16.65
2022-09-12T09:48:09.752Z,15.90
2022-09-12T09:50:37.213Z,12.70
2022-09-12T09:53:03.948Z,15.55
2022-09-12T09:55:40.901Z,18.00
2022-09-12T09:58:07.257Z,13.82
2022-09-12T10:00:37.208Z,13.15
2022-09-12T10:03:11.330Z,16.75
2022-09-12T10:05:47.822Z,14.20
2022-09-12T10:08:28.549Z,13.07
2022-09-12T10:10:58.252Z,12.85
2022-09-12T10:13:30.581Z,15.52
2022-09-12T10:15:58.643Z,14.50
2022-09-12T10:18:42.389Z,13.07
2022-09-12T10:21:16.510Z,12.93
2022-09-12T10:23:43.538Z,11.20
2022-09-12T10:26:11.286Z,12.93
2022-09-12T10:28:40.557Z,12.38
2022-09-12T10:31:08.411Z,12.13
2022-09-12T10:33:41.761Z,10.80
2022-09-12T10:36:08.451Z,8.43
2022-09-12T10:38:34.809Z,10.55
2022-09-12T10:41:03.498Z,12.73
2022-09-12T10:43:34.434Z,7.90
2022-09-12T10:46:20.764Z,8.77
2022-09-12T10:48:48.021Z,8.15
2022-09-12T10:51:23.519Z,10.85
2022-09-12T10:53:51.125Z,10.10
2022-09-12T10:56:22.547Z,10.57
2022-09-12T10:59:07.276Z,13.75
2022-09-12T11:01:39.072Z,12.25
2022-09-12T11:04:05.592Z,11.20
2022-09-12T11:06:52.196Z,10.18
2022-09-12T11:09:24.594Z,9.48
2022-09-12T11:12:14.330Z,7.97
2022-09-12T11:14:53.632Z,8.52
2022-09-12T11:17:29.485Z,12.93
2022-09-12T11:19:56.089Z,8.80
2022-09-12T11:22:22.493Z,7.28
2022-09-12T11:25:03.874Z,10.70
2022-09-12T11:27:45.193Z,7.75
2022-09-12T11:30:12.671Z,9.75
2022-09-12T11:33:05.560Z,7.30
2022-09-12T11:35:32.680Z,7.38
2022-09-12T11:38:14.101Z,9.30
2022-09-12T11:40:44.230Z,6.93
2022-09-12T11:43:29.713Z,16.35
2022-09-12T11:45:57.473Z,7.45
2022-09-12T11:48:33.082Z,10.40
2022-09-12T11:51:00.036Z,7.28
2022-09-12T11:53:30.229Z,7.68
2022-09-12T11:55:59.913Z,6.47
2022-09-12T11:58:27.186Z,11.65
2022-09-12T12:00:56.086Z,5.07
2022-09-12T12:03:33.189Z,6.60
2022-09-12T12:06:02.873Z,4.47
2022-09-12T12:08:30.988Z,9.20
2022-09-12T12:11:01.408Z,5.88
2022-09-12T12:13:35.680Z,4.78
2022-09-12T12:16:12.539Z,6.38
2022-09-12T12:18:40.072Z,4.55
2022-09-12T12:21:25.565Z,4.63
2022-09-12T12:24:04.842Z,5.15
2022-09-12T12:26:40.449Z,5.03
2022-09-12T12:29:13.831Z,5.32
2022-09-12T12:31:59.044Z,4.80
2022-09-12T12:34:31.690Z,5.57
2022-09-12T12:36:59.237Z,4.07
2022-09-12T12:39:31.478Z,7.45
2022-09-12T12:42:00.960Z,6.47
2022-09-12T12:44:45.653Z,4.60
2022-09-12T12:47:20.337Z,4.55
2022-09-12T12:49:52.382Z,6.35
2022-09-12T12:52:19.308Z,3.08
2022-09-12T12:54:45.918Z,3.80
2022-09-12T12:57:15.064Z,6.82
2022-09-12T12:59:49.577Z,5.35
2022-09-12T13:02:28.073Z,5.22
2022-09-12T13:04:55.343Z,3.55
2022-09-12T13:07:26.025Z,5.43
2022-09-12T13:09:52.961Z,4.38
2022-09-12T13:12:19.272Z,9.43
2022-09-12T13:14:50.490Z,23.05
2022-09-12T13:17:22.697Z,5.88
2022-09-12T13:19:49.792Z,5.45
2022-09-12T13:22:16.236Z,5.55
2022-09-12T13:24:44.478Z,4.85
2022-09-12T13:27:16.709Z,8.73
2022-09-12T13:29:43.278Z,8.05
2022-09-12T13:32:09.713Z,5.00
2022-09-12T13:34:41.702Z,7.63
2022-09-12T13:37:17.260Z,4.20
2022-09-12T13:39:49.777Z,4.78
2022-09-12T13:42:34.817Z,4.82
2022-09-12T13:45:13.424Z,4.82
2022-09-12T13:47:46.880Z,4.30
2022-09-12T13:50:16.603Z,3.35
2022-09-12T13:52:45.892Z,3.33
2022-09-12T13:55:23.916Z,4.20
2022-09-12T13:57:56.149Z,3.90
2022-09-12T14:00:22.585Z,4.05
2022-09-12T14:02:49.253Z,3.88
2022-09-12T14:05:22.090Z,4.88
2022-09-12T14:07:54.273Z,3.30
2022-09-12T14:10:22.721Z,3.47
2022-09-12T14:12:50.699Z,3.10
2022-09-12T14:15:24.563Z,4.07
2022-09-12T14:17:52.602Z,3.53
2022-09-12T14:20:20.237Z,3.55
2022-09-12T14:22:50.914Z,3.83
2022-09-12T14:25:19.292Z,4.85
2022-09-12T14:27:47.881Z,4.70
2022-09-12T14:30:25.264Z,4.40
2022-09-12T14:33:10.016Z,5.38
2022-09-12T14:35:47.093Z,4.88
2022-09-12T14:38:16.553Z,6.22
2022-09-12T14:40:44.438Z,2.97
2022-09-12T14:43:26.598Z,5.57
2022-09-12T14:45:59.378Z,3.90
2022-09-12T14:48:26.802Z,3.50
2022-09-12T14:50:53.775Z,3.78
2022-09-12T14:53:20.122Z,5.68
2022-09-12T14:55:53.368Z,6.32
2022-09-12T14:58:19.779Z,5.68
2022-09-12T15:00:57.967Z,5.03
2022-09-12T15:03:29.005Z,6.22
2022-09-12T15:05:57.098Z,5.05
2022-09-12T15:08:24.053Z,4.65
2022-09-12T15:10:50.754Z,6.78
2022-09-12T15:13:19.270Z,3.45
2022-09-12T15:15:46.952Z,3.85
2022-09-12T15:18:14.795Z,7.25
2022-09-12T15:20:42.370Z,6.82
2022-09-12T15:23:20.353Z,7.95
2022-09-12T15:25:46.813Z,4.20
2022-09-12T15:28:15.990Z,3.88
2022-09-12T15:30:43.026Z,5.65
2022-09-12T15:33:10.597Z,5.28
2022-09-12T15:35:37.423Z,3.60
2022-09-12T15:38:03.744Z,3.55
2022-09-12T15:40:30.052Z,4.90
2022-09-12T15:42:56.369Z,4.28
2022-09-12T15:45:25.766Z,5.20
2022-09-12T15:47:52.153Z,6.03
2022-09-12T15:50:18.548Z,4.22
2022-09-12T15:52:45.204Z,3.15
2022-09-12T15:55:20.851Z,3.25
2022-09-12T15:57:47.693Z,3.30
2022-09-12T16:00:14.462Z,3.53
2022-09-12T16:02:41.040Z,4.10
2022-09-12T16:05:12.174Z,9.18
2022-09-12T16:07:38.557Z,4.80
2022-09-12T16:10:05.136Z,4.25
2022-09-12T16:12:31.489Z,6.32
2022-09-12T16:14:59.184Z,4.32
2022-09-12T16:17:25.521Z,5.57
2022-09-12T16:19:51.862Z,2.50
2022-09-12T16:22:18.949Z,2.90
2022-09-12T16:24:45.937Z,6.55
2022-09-12T16:27:12.678Z,2.65
2022-09-12T16:29:39.079Z,4.07
2022-09-12T16:32:05.513Z,3.95
2022-09-12T16:34:31.889Z,6.45
2022-09-12T16:36:58.264Z,3.97
2022-09-12T16:39:24.632Z,3.88
2022-09-12T16:41:50.973Z,3.83
2022-09-12T16:44:17.373Z,6.00
2022-09-12T16:46:43.843Z,4.72
2022-09-12T16:49:10.915Z,4.93
2022-09-12T16:51:37.287Z,6.05
2022-09-12T16:54:03.921Z,4.90
2022-09-12T16:56:30.465Z,5.43
2022-09-12T16:58:56.834Z,3.92
2022-09-12T17:01:24.530Z,3.85
2022-09-12T17:03:57.953Z,5.63
2022-09-12T17:06:25.149Z,3.75
2022-09-12T17:08:52.433Z,4.38
2022-09-12T17:11:23.149Z,5.35
2022-09-12T17:14:04.407Z,3.92
2022-09-12T17:16:32.353Z,4.05
2022-09-12T17:18:58.849Z,3.95
2022-09-12T17:21:25.868Z,4.22
2022-09-12T17:23:52.568Z,5.18
2022-09-12T17:26:18.934Z,4.97
2022-09-12T17:28:45.260Z,7.53
2022-09-12T17:31:14.802Z,6.57
2022-09-12T17:33:41.931Z,5.50
2022-09-12T17:36:14.871Z,5.78
2022-09-12T17:38:41.634Z,5.40
2022-09-12T17:41:09.358Z,4.53
2022-09-12T17:43:37.780Z,5.70
2022-09-12T17:46:04.622Z,4.75
2022-09-12T17:48:31.056Z,3.85
2022-09-12T17:50:57.866Z,6.43
2022-09-12T17:53:25.197Z,5.35
2022-09-12T17:55:54.267Z,6.38
2022-09-12T17:58:20.797Z,4.20
2022-09-12T18:01:05.918Z,6.78
2022-09-12T18:03:34.955Z,3.83
2022-09-12T18:06:01.437Z,6.65
2022-09-12T18:08:27.818Z,5.25
2022-09-12T18:10:54.205Z,4.53
2022-09-12T18:13:20.576Z,6.57
2022-09-12T18:15:47.080Z,7.07
2022-09-12T18:18:13.565Z,7.88
2022-09-12T18:20:39.890Z,4.63
2022-09-12T18:23:06.305Z,7.97
2022-09-12T18:25:32.744Z,4.90
2022-09-12T18:27:59.069Z,5.93
2022-09-12T18:30:25.440Z,5.93
2022-09-12T18:32:51.872Z,4.65
2022-09-12T18:35:18.520Z,4.55
2022-09-12T18:37:44.994Z,4.35
2022-09-12T18:40:11.615Z,5.53
2022-09-12T18:42:39.077Z,5.65
2022-09-12T18:45:05.741Z,6.63
2022-09-12T18:47:32.102Z,4.18
2022-09-12T18:49:58.575Z,3.78
2022-09-12T18:52:24.951Z,3.67
2022-09-12T18:54:51.384Z,3.95
2022-09-12T18:57:17.822Z,4.43
2022-09-12T18:59:44.515Z,4.50
2022-09-12T19:02:15.422Z,4.00
2022-09-12T19:04:41.865Z,7.90
2022-09-12T19:07:08.521Z,5.18
2022-09-12T19:09:34.954Z,5.15
2022-09-12T19:12:01.418Z,4.65
2022-09-12T19:14:27.841Z,3.67
2022-09-12T19:16:54.282Z,5.15
2022-09-12T19:19:21.141Z,7.13
2022-09-12T19:21:47.503Z,5.63
2022-09-12T19:24:16.469Z,4.45
2022-09-12T19:26:43.397Z,4.90
2022-09-12T19:29:11.025Z,4.13
2022-09-12T19:31:37.459Z,3.85
2022-09-12T19:34:06.094Z,4.63
2022-09-12T19:36:48.357Z,4.85
2022-09-12T19:39:19.434Z,4.70
2022-09-12T19:41:47.812Z,5.78
2022-09-12T19:44:14.385Z,5.35
2022-09-12T19:46:40.942Z,5.68
2022-09-12T19:49:07.437Z,5.03
2022-09-12T19:51:34.007Z,4.60
2022-09-12T19:54:00.434Z,5.45
2022-09-12T19:56:26.899Z,5.53
2022-09-12T19:58:56.372Z,5.70
2022-09-12T20:01:24.978Z,5.97
2022-09-12T20:03:54.738Z,4.80
2022-09-12T20:06:21.418Z,5.45
2022-09-12T20:08:47.891Z,5.85
2022-09-12T20:11:17.373Z,4.80
2022-09-12T20:13:43.951Z,5.43
2022-09-12T20:16:21.422Z,5.35
2022-09-12T20:18:52.492Z,5.38
2022-09-12T20:21:20.041Z,5.25
2022-09-12T20:23:46.612Z,5.32
2022-09-12T20:26:13.643Z,6.88
2022-09-12T20:28:41.229Z,5.32
2022-09-12T20:31:09.985Z,5.20
2022-09-12T20:33:36.344Z,5.47
2022-09-12T20:36:04.534Z,5.88
2022-09-12T20:38:30.904Z,7.30
2022-09-12T20:40:57.353Z,5.13
2022-09-12T20:43:23.748Z,5.75
2022-09-12T20:45:50.206Z,5.82
2022-09-12T20:48:16.634Z,6.13
2022-09-12T20:50:42.969Z,5.68
2022-09-12T20:53:09.287Z,5.60
2022-09-12T20:55:35.820Z,6.55
2022-09-12T20:58:02.141Z,6.13
2022-09-12T21:00:30.082Z,6.78
2022-09-12T21:02:56.821Z,5.78
2022-09-12T21:05:23.213Z,7.80
2022-09-12T21:07:49.601Z,6.15
2022-09-12T21:10:15.967Z,6.10
2022-09-12T21:12:42.360Z,8.48
2022-09-12T21:15:08.912Z,6.68
2022-09-12T21:17:35.398Z,6.45
2022-09-12T21:20:02.206Z,6.03
2022-09-12T21:22:29.627Z,6.80
2022-09-12T21:24:55.959Z,5.93
2022-09-12T21:27:23.244Z,6.18
2022-09-12T21:29:50.421Z,6.13
2022-09-12T21:32:16.857Z,6.78
2022-09-12T21:34:43.240Z,9.43
2022-09-12T21:37:09.665Z,8.57
2022-09-12T21:39:36.029Z,6.70
2022-09-12T21:42:02.430Z,7.07
2022-09-12T21:44:28.769Z,7.25
2022-09-12T21:46:55.198Z,7.28
2022-09-12T21:49:21.905Z,8.07
2022-09-12T21:51:48.274Z,8.00
2022-09-12T21:54:14.718Z,9.32
2022-09-12T21:56:41.023Z,8.85
2022-09-12T21:59:07.367Z,11.23
2022-09-12T22:01:33.683Z,10.95
2022-09-12T22:04:00.075Z,9.02
2022-09-12T22:06:26.518Z,7.78
2022-09-12T22:08:52.889Z,6.35
2022-09-12T22:11:20.261Z,9.35
2022-09-12T22:13:46.736Z,10.05
2022-09-12T22:16:13.171Z,8.65
2022-09-12T22:18:40.061Z,8.60
2022-09-12T22:21:12.708Z,8.10
2022-09-12T22:23:57.817Z,8.32
2022-09-12T22:26:24.249Z,7.47
2022-09-12T22:28:50.752Z,10.35
2022-09-12T22:31:17.333Z,8.45
2022-09-12T22:33:43.850Z,10.55
2022-09-12T22:36:10.365Z,9.63
2022-09-12T22:38:36.752Z,8.30
2022-09-12T22:41:07.026Z,8.52
2022-09-12T22:43:34.140Z,9.98
2022-09-12T22:46:00.721Z,8.38
2022-09-12T22:48:27.217Z,9.15
2022-09-12T22:50:53.708Z,9.38
2022-09-12T22:53:20.020Z,9.23
2022-09-12T22:55:46.510Z,13.55
2022-09-12T22:58:12.911Z,9.05
2022-09-12T23:00:39.348Z,8.23
2022-09-12T23:03:05.828Z,9.80
2022-09-12T23:05:32.393Z,9.60
2022-09-12T23:07:58.909Z,9.30
2022-09-12T23:10:27.031Z,10.23
2022-09-12T23:12:54.831Z,10.18
2022-09-12T23:15:21.341Z,10.32
2022-09-12T23:17:47.773Z,10.20
2022-09-12T23:20:14.189Z,9.52
2022-09-12T23:22:40.581Z,10.77
2022-09-12T23:25:07.505Z,11.05
2022-09-12T23:27:34.776Z,11.77
2022-09-12T23:30:01.117Z,12.85
2022-09-12T23:32:28.270Z,10.80
2022-09-12T23:34:54.598Z,9.93
2022-09-12T23:37:21.611Z,11.02
2022-09-12T23:39:49.531Z,10.73
2022-09-12T23:42:16.257Z,9.52
2022-09-12T23:44:42.577Z,12.57
2022-09-12T23:47:08.904Z,11.27
2022-09-12T23:49:35.388Z,12.65
2022-09-12T23:52:01.888Z,11.35
2022-09-12T23:54:28.326Z,10.77
2022-09-12T23:56:54.774Z,10.20
2022-09-12T23:59:21.167Z,12.00
